Time;durP1;ratioP1;P1;durP2;ratioP2;P2;SDS_P1;SDS_P2;PMS_P1;PMS_P2;Temp;Humidity;BMP_temperature;BMP_pressure;BME280_temperature;BME280_humidity;BME280_pressure;Samples;Min_cycle;Max_cycle;Signal;HPM_P1;HPM_P2
2024/01/12 00:01:23;;;;;;;0.00;0.00;;;27.80;46.20;;;;;;5071337;28;20276;-43
2024/01/12 00:03:54;;;;;;;0.00;0.00;;;27.80;46.30;;;;;;5071182;28;20195;-43
2024/01/12 00:06:27;;;;;;;0.00;0.00;;;27.70;46.30;;;;;;5071545;28;20195;-43
2024/01/12 00:08:57;;;;;;;0.00;0.00;;;27.80;46.50;;;;;;5069802;28;20210;-44
2024/01/12 00:11:28;;;;;;;0.00;0.00;;;27.80;46.50;;;;;;5070976;28;20218;-43
2024/01/12 00:13:59;;;;;;;0.00;0.00;;;27.80;46.60;;;;;;5071399;28;20190;-43
2024/01/12 00:16:29;;;;;;;0.00;0.00;;;27.80;46.60;;;;;;5071298;28;20198;-43
2024/01/12 00:19:00;;;;;;;0.00;0.00;;;27.80;46.40;;;;;;5071066;28;20194;-43
2024/01/12 00:21:32;;;;;;;0.00;0.00;;;27.80;46.40;;;;;;5068893;28;20222;-43
2024/01/12 00:24:03;;;;;;;0.00;0.00;;;27.80;46.50;;;;;;5071516;28;20702;-46
2024/01/12 00:26:33;;;;;;;0.00;0.00;;;27.80;46.40;;;;;;5071532;28;20198;-48
2024/01/12 00:29:04;;;;;;;0.00;0.00;;;27.80;46.40;;;;;;5071146;28;20218;-45
2024/01/12 00:31:35;;;;;;;0.00;0.00;;;27.80;46.30;;;;;;5070903;28;20698;-43
2024/01/12 00:34:06;;;;;;;0.00;0.00;;;27.80;46.30;;;;;;5065133;28;20648;-44
2024/01/12 00:36:38;;;;;;;0.00;0.00;;;27.80;46.40;;;;;;5051206;28;20415;-43
2024/01/12 00:39:09;;;;;;;0.00;0.00;;;27.80;46.40;;;;;;5051343;28;20196;-46
2024/01/12 00:41:40;;;;;;;0.00;0.00;;;27.90;46.40;;;;;;5054244;28;20241;-43
2024/01/12 00:44:10;;;;;;;0.00;0.00;;;27.90;46.40;;;;;;5055326;28;20207;-43
2024/01/12 00:46:44;;;;;;;0.00;0.00;;;27.90;46.30;;;;;;5055111;28;20196;-43
2024/01/12 00:49:14;;;;;;;0.00;0.00;;;27.80;46.30;;;;;;5055028;28;20202;-43
2024/01/12 00:51:47;;;;;;;0.00;0.00;;;27.90;46.40;;;;;;5054921;28;20285;-43
2024/01/12 00:54:20;;;;;;;0.00;0.00;;;27.90;46.60;;;;;;5054769;28;20196;-43
2024/01/12 00:56:50;;;;;;;0.00;0.00;;;27.90;46.50;;;;;;5054794;28;20195;-43
2024/01/12 00:59:22;;;;;;;0.00;0.00;;;27.90;46.40;;;;;;5054755;28;20602;-43
2024/01/12 01:01:56;;;;;;;0.00;0.00;;;27.90;46.40;;;;;;5063782;28;20210;-43
2024/01/12 01:04:27;;;;;;;0.00;0.00;;;27.90;46.50;;;;;;5074764;28;20599;-43
2024/01/12 01:07:00;;;;;;;0.00;0.00;;;27.90;46.60;;;;;;5073985;28;20201;-43
2024/01/12 01:09:30;;;;;;;0.00;0.00;;;27.90;46.50;;;;;;5074363;28;20654;-43
2024/01/12 01:12:01;;;;;;;0.00;0.00;;;27.90;46.50;;;;;;5074301;28;20227;-43
2024/01/12 01:14:31;;;;;;;0.00;0.00;;;27.90;46.50;;;;;;5074395;28;20194;-43
2024/01/12 01:17:02;;;;;;;0.00;0.00;;;27.90;46.50;;;;;;5074418;28;20199;-44
2024/01/12 01:19:33;;;;;;;0.00;0.00;;;27.90;46.40;;;;;;5057965;28;20228;-43
2024/01/12 01:22:06;;;;;;;0.00;0.00;;;27.90;46.50;;;;;;5054210;28;20222;-43
2024/01/12 01:24:37;;;;;;;0.00;0.00;;;27.90;46.40;;;;;;5054449;28;20359;-43
2024/01/12 01:27:07;;;;;;;0.00;0.00;;;27.90;46.40;;;;;;5053962;28;20196;-43
2024/01/12 01:29:38;;;;;;;0.00;0.00;;;27.90;47.00;;;;;;5064834;28;20195;-43
2024/01/12 01:32:08;;;;;;;0.00;0.00;;;27.90;46.40;;;;;;5074004;28;20284;-43
2024/01/12 01:34:39;;;;;;;0.00;0.00;;;27.90;46.40;;;;;;5074224;28;20258;-45
2024/01/12 01:37:11;;;;;;;0.00;0.00;;;27.90;46.40;;;;;;5074130;28;20534;-44
2024/01/12 01:39:42;;;;;;;0.00;0.00;;;27.90;46.40;;;;;;5074297;28;20199;-43
2024/01/12 01:42:13;;;;;;;0.00;0.00;;;27.90;46.40;;;;;;5073491;28;20287;-44
2024/01/12 01:44:43;;;;;;;0.00;0.00;;;27.90;46.40;;;;;;5074302;28;20203;-43
2024/01/12 01:47:14;;;;;;;0.00;0.00;;;27.90;46.40;;;;;;5073937;28;20657;-43
2024/01/12 01:49:45;;;;;;;0.00;0.00;;;27.90;46.30;;;;;;5074005;28;20248;-43
2024/01/12 01:52:18;;;;;;;0.00;0.00;;;27.90;46.30;;;;;;5073186;28;20271;-43
2024/01/12 01:54:49;;;;;;;0.00;0.00;;;27.90;46.20;;;;;;5073945;28;20198;-43
2024/01/12 01:57:19;;;;;;;0.00;0.00;;;27.90;46.30;;;;;;5073883;28;20546;-43
2024/01/12 01:59:50;;;;;;;0.00;0.00;;;27.90;46.30;;;;;;5073804;28;20260;-43
2024/01/12 02:02:21;;;;;;;0.00;0.00;;;27.90;46.30;;;;;;5073185;28;20347;-43
2024/01/12 02:04:55;;;;;;;0.00;0.00;;;27.90;46.30;;;;;;5073284;28;20711;-44
2024/01/12 02:07:27;;;;;;;0.00;0.00;;;27.80;46.20;;;;;;5072231;28;20248;-43
2024/01/12 02:10:00;;;;;;;0.00;0.00;;;27.90;46.20;;;;;;5053650;28;20223;-43
2024/01/12 02:12:31;;;;;;;0.00;0.00;;;27.90;46.20;;;;;;5052533;28;20330;-43
2024/01/12 02:15:01;;;;;;;0.00;0.00;;;27.80;46.10;;;;;;5052875;28;20203;-43
2024/01/12 02:17:32;;;;;;;0.00;0.00;;;27.90;46.10;;;;;;5053000;28;20195;-43
2024/01/12 02:20:02;;;;;;;0.00;0.00;;;27.90;46.10;;;;;;5055995;28;20654;-43
2024/01/12 02:22:35;;;;;;;0.00;0.00;;;27.80;46.00;;;;;;5073092;28;20211;-43
2024/01/12 02:25:06;;;;;;;0.00;0.00;;;27.90;46.10;;;;;;5073077;28;20190;-43
2024/01/12 02:27:37;;;;;;;0.00;0.00;;;27.90;46.00;;;;;;5070962;28;20195;-44
2024/01/12 02:30:09;;;;;;;0.00;0.00;;;27.90;46.00;;;;;;5052968;28;20207;-44
2024/01/12 02:32:39;;;;;;;0.00;0.00;;;27.90;46.00;;;;;;5053162;28;20231;-44
2024/01/12 02:35:11;;;;;;;0.00;0.00;;;27.80;45.90;;;;;;5053068;28;20663;-43
2024/01/12 02:37:43;;;;;;;0.00;0.00;;;27.80;45.90;;;;;;5061414;28;20199;-43
2024/01/12 02:40:14;;;;;;;0.00;0.00;;;27.90;45.90;;;;;;5073043;28;20234;-45
2024/01/12 02:42:45;;;;;;;0.00;0.00;;;27.90;45.90;;;;;;5073106;28;20264;-43
2024/01/12 02:45:16;;;;;;;0.00;0.00;;;27.80;45.80;;;;;;5072925;28;20199;-46
2024/01/12 02:47:46;;;;;;;0.00;0.00;;;27.80;45.80;;;;;;5072817;28;20195;-43
2024/01/12 02:50:17;;;;;;;0.00;0.00;;;27.80;45.80;;;;;;5073037;28;20190;-43
2024/01/12 02:52:49;;;;;;;0.00;0.00;;;27.80;45.80;;;;;;5072388;28;20299;-43
2024/01/12 02:55:20;;;;;;;0.00;0.00;;;27.80;45.80;;;;;;5072338;28;20510;-44
2024/01/12 02:57:50;;;;;;;0.00;0.00;;;27.80;45.80;;;;;;5072100;28;20245;-43
2024/01/12 03:00:21;;;;;;;0.00;0.00;;;27.80;45.80;;;;;;5071888;28;20259;-44
2024/01/12 03:09:38;;;;;;;0.00;0.00;;;27.80;45.80;;;;;;5049282;28;20690;-43
2024/01/12 03:12:09;;;;;;;0.00;0.00;;;27.80;45.80;;;;;;5050934;28;20729;-43
2024/01/12 03:14:39;;;;;;;0.00;0.00;;;27.80;45.80;;;;;;5051542;28;20652;-43
2024/01/12 03:17:10;;;;;;;0.00;0.00;;;27.80;45.90;;;;;;5052358;28;20191;-43
2024/01/12 03:19:41;;;;;;;0.00;0.00;;;27.70;45.80;;;;;;5052204;28;20253;-43
2024/01/12 03:22:11;;;;;;;0.00;0.00;;;27.80;45.90;;;;;;5051878;28;20292;-43
2024/01/12 03:24:44;;;;;;;0.00;0.00;;;27.80;45.80;;;;;;5051876;28;20337;-44
2024/01/12 03:27:14;;;;;;;0.00;0.00;;;27.80;45.80;;;;;;5066509;28;20194;-44
2024/01/12 03:29:45;;;;;;;0.00;0.00;;;27.80;45.80;;;;;;5071938;28;20230;-43
2024/01/12 03:32:15;;;;;;;0.00;0.00;;;27.80;45.80;;;;;;5071683;28;20219;-43
2024/01/12 03:34:46;;;;;;;0.00;0.00;;;27.80;45.80;;;;;;5062532;28;20195;-43
2024/01/12 03:37:17;;;;;;;0.00;0.00;;;27.80;45.80;;;;;;5063128;28;20283;-43
2024/01/12 03:39:49;;;;;;;0.00;0.00;;;27.80;45.70;;;;;;5065403;28;20198;-43
2024/01/12 03:42:20;;;;;;;0.00;0.00;;;27.80;45.70;;;;;;5048334;28;20309;-43
2024/01/12 03:44:50;;;;;;;0.00;0.00;;;27.80;45.70;;;;;;5048375;28;20211;-43
2024/01/12 03:47:21;;;;;;;0.00;0.00;;;27.80;45.80;;;;;;5048112;28;20204;-45
2024/01/12 03:49:51;;;;;;;0.00;0.00;;;27.80;45.80;;;;;;5052320;28;20228;-45
2024/01/12 03:52:22;;;;;;;0.00;0.00;;;27.80;45.80;;;;;;5067208;28;20417;-44
2024/01/12 03:54:54;;;;;;;0.00;0.00;;;27.80;45.80;;;;;;5067780;28;20289;-42
2024/01/12 03:57:25;;;;;;;0.00;0.00;;;27.80;45.80;;;;;;5067365;28;20248;-44
2024/01/12 03:59:56;;;;;;;0.00;0.00;;;27.90;45.90;;;;;;5067941;28;20205;-43
2024/01/12 04:02:26;;;;;;;0.00;0.00;;;27.80;45.80;;;;;;5067493;28;20567;-43
2024/01/12 04:04:57;;;;;;;0.00;0.00;;;27.80;45.80;;;;;;5067066;28;20260;-46
2024/01/12 04:07:30;;;;;;;0.00;0.00;;;27.90;45.90;;;;;;5065227;28;20252;-46
2024/01/12 04:10:03;;;;;;;0.00;0.00;;;27.90;45.90;;;;;;5067445;28;20711;-44
2024/01/12 04:12:33;;;;;;;0.00;0.00;;;27.90;45.90;;;;;;5067134;28;20309;-45
2024/01/12 04:15:04;;;;;;;0.00;0.00;;;27.90;45.80;;;;;;5065165;28;20666;-44
2024/01/12 04:17:35;;;;;;;0.00;0.00;;;27.90;45.80;;;;;;5066878;28;20252;-43
2024/01/12 04:20:06;;;;;;;0.00;0.00;;;27.90;45.80;;;;;;5066989;28;20206;-44
2024/01/12 04:22:37;;;;;;;0.00;0.00;;;28.00;45.70;;;;;;5066324;28;20636;-48
2024/01/12 04:25:10;;;;;;;0.00;0.00;;;27.90;45.60;;;;;;5067422;28;20206;-45
2024/01/12 04:27:41;;;;;;;0.00;0.00;;;28.00;45.70;;;;;;5067830;28;20287;-47
2024/01/12 04:30:12;;;;;;;0.00;0.00;;;28.00;45.60;;;;;;5061874;28;20199;-44
2024/01/12 04:32:43;;;;;;;0.00;0.00;;;28.00;45.60;;;;;;5067665;28;20690;-43
2024/01/12 04:35:13;;;;;;;0.00;0.00;;;28.00;45.60;;;;;;5067553;28;20198;-44
2024/01/12 04:37:44;;;;;;;0.00;0.00;;;28.00;45.40;;;;;;5067155;28;20198;-43
2024/01/12 04:40:16;;;;;;;0.00;0.00;;;27.90;45.30;;;;;;5067460;28;20203;-45
2024/01/12 04:45:19;;;;;;;0.00;0.00;;;28.00;45.30;;;;;;5025615;28;20297;-43
2024/01/12 04:47:50;;;;;;;0.00;0.00;;;27.90;45.20;;;;;;5027953;28;20208;-45
2024/01/12 04:50:20;;;;;;;0.00;0.00;;;28.00;45.20;;;;;;5027605;28;20196;-41
2024/01/12 04:52:52;;;;;;;0.00;0.00;;;28.00;45.20;;;;;;5027248;28;20262;-43
2024/01/12 04:55:24;;;;;;;0.00;0.00;;;28.00;45.10;;;;;;5027712;28;20196;-46
2024/01/12 04:57:55;;;;;;;0.00;0.00;;;28.00;45.10;;;;;;5026934;28;20664;-42
2024/01/12 05:00:25;;;;;;;0.00;0.00;;;28.00;45.10;;;;;;5026557;28;20278;-44
2024/01/12 05:02:56;;;;;;;0.00;0.00;;;28.00;45.00;;;;;;5027140;28;20282;-43
2024/01/12 05:05:26;;;;;;;0.00;0.00;;;28.00;44.90;;;;;;5026983;28;20200;-42
2024/01/12 05:07:57;;;;;;;0.00;0.00;;;28.00;44.80;;;;;;5026894;28;20235;-45
2024/01/12 05:10:29;;;;;;;0.00;0.00;;;28.00;44.80;;;;;;5026974;28;20270;-43
2024/01/12 05:13:00;;;;;;;0.00;0.00;;;28.00;44.80;;;;;;5026629;28;20262;-42
2024/01/12 05:15:31;;;;;;;0.00;0.00;;;28.00;44.80;;;;;;5013845;28;20255;-42
2024/01/12 05:18:01;;;;;;;0.00;0.00;;;28.00;44.80;;;;;;5007199;28;20628;-42
2024/01/12 05:20:32;;;;;;;0.00;0.00;;;28.00;44.70;;;;;;5006963;28;20726;-43
2024/01/12 05:23:03;;;;;;;0.00;0.00;;;28.00;44.70;;;;;;5007326;28;20250;-42
2024/01/12 05:25:36;;;;;;;0.00;0.00;;;28.00;44.80;;;;;;5012037;28;20230;-42
2024/01/12 05:28:10;;;;;;;0.00;0.00;;;28.00;44.70;;;;;;5024377;28;20201;-43
2024/01/12 05:30:40;;;;;;;0.00;0.00;;;28.00;44.70;;;;;;5011361;28;20197;-43
2024/01/12 05:33:11;;;;;;;0.00;0.00;;;28.00;44.80;;;;;;5010447;28;20750;-41
2024/01/12 05:35:42;;;;;;;0.00;0.00;;;28.00;44.70;;;;;;5010987;28;20696;-42
2024/01/12 05:38:12;;;;;;;0.00;0.00;;;28.00;44.70;;;;;;5022301;28;20266;-41
2024/01/12 05:40:45;;;;;;;0.00;0.00;;;28.00;44.80;;;;;;5029886;28;20238;-42
2024/01/12 05:43:17;;;;;;;0.00;0.00;;;28.00;44.80;;;;;;5030830;28;20274;-42
2024/01/12 05:45:48;;;;;;;0.00;0.00;;;28.00;44.70;;;;;;5029978;28;20739;-44
2024/01/12 05:48:20;;;;;;;0.00;0.00;;;28.00;44.70;;;;;;5030969;28;20204;-47
2024/01/12 05:50:51;;;;;;;0.00;0.00;;;28.00;44.70;;;;;;5029829;28;20297;-45
2024/01/12 05:53:25;;;;;;;0.00;0.00;;;28.00;44.70;;;;;;5030166;28;20224;-44
2024/01/12 05:55:58;;;;;;;0.00;0.00;;;28.00;44.70;;;;;;5030122;28;20690;-42
2024/01/12 05:58:29;;;;;;;0.00;0.00;;;28.00;44.70;;;;;;5030523;28;20246;-44
2024/01/12 06:01:00;;;;;;;0.00;0.00;;;28.00;44.80;;;;;;5029933;28;20231;-46
2024/01/12 06:03:31;;;;;;;0.00;0.00;;;28.00;44.80;;;;;;5029993;28;20261;-44
2024/01/12 06:06:05;;;;;;;0.00;0.00;;;27.90;44.80;;;;;;5029911;28;20199;-44
2024/01/12 06:08:35;;;;;;;0.00;0.00;;;27.90;44.80;;;;;;5030112;28;20294;-44
2024/01/12 06:11:08;;;;;;;0.00;0.00;;;27.90;44.80;;;;;;5030251;28;20224;-45
2024/01/12 06:13:39;;;;;;;0.00;0.00;;;27.90;44.80;;;;;;5016393;28;20228;-44
2024/01/12 06:16:10;;;;;;;0.00;0.00;;;27.90;44.80;;;;;;5009655;28;20612;-42
2024/01/12 06:18:40;;;;;;;0.00;0.00;;;27.90;44.90;;;;;;5013865;28;20242;-47
2024/01/12 06:21:11;;;;;;;0.00;0.00;;;27.90;44.90;;;;;;5029491;28;20282;-42
2024/01/12 06:23:41;;;;;;;0.00;0.00;;;27.90;44.90;;;;;;5028924;28;20197;-46
2024/01/12 06:26:14;;;;;;;0.00;0.00;;;27.90;45.00;;;;;;5028423;28;20196;-45
2024/01/12 06:28:44;;;;;;;0.00;0.00;;;27.90;45.00;;;;;;5014066;28;20242;-46
2024/01/12 06:31:15;;;;;;;0.00;0.00;;;27.80;44.90;;;;;;5029927;28;20302;-44
2024/01/12 06:33:46;;;;;;;0.00;0.00;;;27.90;45.10;;;;;;5026836;28;20261;-44
2024/01/12 06:36:17;;;;;;;0.00;0.00;;;27.90;45.10;;;;;;5029128;28;20267;-44
2024/01/12 06:38:47;;;;;;;0.00;0.00;;;27.90;45.10;;;;;;5029158;28;20204;-43
2024/01/12 06:41:20;;;;;;;0.00;0.00;;;27.90;45.20;;;;;;5028700;28;20279;-42
2024/01/12 06:43:50;;;;;;;0.00;0.00;;;27.90;45.20;;;;;;5029146;28;20669;-45
2024/01/12 06:46:21;;;;;;;0.00;0.00;;;27.90;45.20;;;;;;5013314;28;20219;-45
2024/01/12 06:48:52;;;;;;;0.00;0.00;;;27.90;45.20;;;;;;5012541;28;20255;-47
2024/01/12 06:51:25;;;;;;;0.00;0.00;;;27.90;45.20;;;;;;5012555;28;20220;-42
2024/01/12 06:53:56;;;;;;;0.00;0.00;;;27.90;45.20;;;;;;5012929;28;20229;-47
2024/01/12 06:56:29;;;;;;;0.00;0.00;;;27.90;45.20;;;;;;5012969;28;20197;-45
2024/01/12 06:58:59;;;;;;;0.00;0.00;;;27.80;45.10;;;;;;5011884;28;20633;-44
2024/01/12 07:01:30;;;;;;;0.00;0.00;;;27.90;45.20;;;;;;5012347;28;20220;-44
2024/01/12 07:04:00;;;;;;;0.00;0.00;;;27.90;45.10;;;;;;5012713;28;20653;-41
2024/01/12 07:06:31;;;;;;;0.00;0.00;;;27.90;45.10;;;;;;5012747;28;20201;-44
2024/01/12 07:09:02;;;;;;;0.00;0.00;;;27.90;45.10;;;;;;5031852;28;20722;-44
2024/01/12 07:11:34;;;;;;;0.00;0.00;;;27.80;45.00;;;;;;5031949;28;20270;-45
2024/01/12 07:14:05;;;;;;;0.00;0.00;;;27.80;45.00;;;;;;5032112;28;20220;-44
2024/01/12 07:16:36;;;;;;;0.00;0.00;;;27.80;45.00;;;;;;5031953;28;20612;-43
2024/01/12 07:19:07;;;;;;;0.00;0.00;;;27.80;45.00;;;;;;5031673;28;20199;-43
2024/01/12 07:21:37;;;;;;;0.00;0.00;;;27.80;44.90;;;;;;5028720;28;20676;-45
2024/01/12 07:24:08;;;;;;;0.00;0.00;;;27.80;44.90;;;;;;5032330;28;20242;-42
2024/01/12 07:26:41;;;;;;;0.00;0.00;;;27.80;44.80;;;;;;5031622;28;20200;-46
2024/01/12 07:29:12;;;;;;;0.00;0.00;;;27.80;44.90;;;;;;5031759;28;20196;-43
2024/01/12 07:31:42;;;;;;;0.00;0.00;;;27.80;44.80;;;;;;5031637;28;20263;-44
2024/01/12 07:34:13;;;;;;;0.00;0.00;;;27.70;44.70;;;;;;5031107;28;20232;-44
2024/01/12 07:36:43;;;;;;;0.00;0.00;;;27.70;44.80;;;;;;5029492;28;20250;-42
2024/01/12 07:39:14;;;;;;;0.00;0.00;;;27.70;44.80;;;;;;5032092;28;20664;-44
2024/01/12 07:41:46;;;;;;;0.00;0.00;;;27.70;44.70;;;;;;5031211;28;20270;-42
2024/01/12 07:44:17;;;;;;;0.00;0.00;;;27.70;44.70;;;;;;5032213;28;20203;-41
2024/01/12 07:46:48;;;;;;;0.00;0.00;;;27.60;44.70;;;;;;5031471;28;20250;-45
2024/01/12 07:49:18;;;;;;;0.00;0.00;;;27.60;44.70;;;;;;5031784;28;20200;-45
2024/01/12 07:51:49;;;;;;;0.00;0.00;;;27.60;44.70;;;;;;5031522;28;20630;-44
2024/01/12 07:54:20;;;;;;;0.00;0.00;;;27.60;44.70;;;;;;5031501;28;20231;-45
2024/01/12 07:56:52;;;;;;;0.00;0.00;;;27.60;44.70;;;;;;5030703;28;20661;-45
2024/01/12 07:59:23;;;;;;;0.00;0.00;;;27.60;44.80;;;;;;5031408;28;20253;-44
2024/01/12 08:01:56;;;;;;;0.00;0.00;;;27.60;44.80;;;;;;5031523;28;20688;-43
2024/01/12 08:04:26;;;;;;;0.00;0.00;;;27.50;44.80;;;;;;5031686;28;20208;-41
2024/01/12 08:06:57;;;;;;;0.00;0.00;;;27.50;44.70;;;;;;5031833;28;20204;-44
2024/01/12 08:09:27;;;;;;;0.00;0.00;;;27.50;44.80;;;;;;5031698;28;20204;-46
2024/01/12 08:12:00;;;;;;;0.00;0.00;;;27.50;44.80;;;;;;5030620;28;20220;-40
2024/01/12 08:14:31;;;;;;;0.00;0.00;;;27.50;44.80;;;;;;5031265;28;20702;-40
2024/01/12 08:17:02;;;;;;;0.00;0.00;;;27.40;44.80;;;;;;5031095;28;20192;-42
2024/01/12 08:19:32;;;;;;;0.00;0.00;;;27.40;44.80;;;;;;5019962;28;20255;-42
2024/01/12 08:22:03;;;;;;;0.00;0.00;;;27.40;44.80;;;;;;5011676;28;20221;-41
2024/01/12 08:24:34;;;;;;;0.00;0.00;;;27.40;44.80;;;;;;5020411;28;20199;-46
2024/01/12 08:27:06;;;;;;;0.00;0.00;;;27.40;44.90;;;;;;5017986;28;20207;-45
2024/01/12 08:29:37;;;;;;;0.00;0.00;;;27.40;45.00;;;;;;5027303;28;20206;-44
2024/01/12 08:32:08;;;;;;;0.00;0.00;;;27.30;44.90;;;;;;5027270;28;20219;-41
2024/01/12 08:34:39;;;;;;;0.00;0.00;;;27.30;45.60;;;;;;5027251;28;20231;-43
2024/01/12 08:37:10;;;;;;;0.00;0.00;;;27.30;45.00;;;;;;5027187;28;20222;-42
2024/01/12 08:39:40;;;;;;;0.00;0.00;;;27.30;45.00;;;;;;5027168;28;20196;-41
2024/01/12 08:42:13;;;;;;;0.00;0.00;;;27.30;45.00;;;;;;5022324;28;20217;-44
2024/01/12 08:44:43;;;;;;;0.00;0.00;;;27.30;45.00;;;;;;5008213;28;20212;-46
2024/01/12 08:47:14;;;;;;;0.00;0.00;;;27.20;45.00;;;;;;5007008;28;20208;-45
2024/01/12 08:49:45;;;;;;;0.00;0.00;;;27.20;45.00;;;;;;5008056;28;20551;-44
2024/01/12 08:52:16;;;;;;;0.00;0.00;;;27.20;45.60;;;;;;5018800;28;20634;-44
2024/01/12 08:54:46;;;;;;;0.00;0.00;;;27.20;45.00;;;;;;5026854;28;20232;-42
2024/01/12 08:57:19;;;;;;;0.00;0.00;;;27.20;45.00;;;;;;5027015;28;20196;-42
2024/01/12 08:59:49;;;;;;;0.00;0.00;;;27.10;45.00;;;;;;5026947;28;20208;-40
2024/01/12 09:02:20;;;;;;;0.00;0.00;;;27.10;45.00;;;;;;5028133;28;20253;-40
2024/01/12 09:04:51;;;;;;;0.00;0.00;;;27.10;45.00;;;;;;5029569;28;20208;-42
2024/01/12 09:07:22;;;;;;;0.00;0.00;;;27.10;45.10;;;;;;5030938;28;20208;-41
2024/01/12 09:09:52;;;;;;;0.00;0.00;;;27.10;45.10;;;;;;5030811;28;20204;-44
2024/01/12 09:12:25;;;;;;;0.00;0.00;;;27.00;45.00;;;;;;5029320;28;20235;-41
2024/01/12 09:14:55;;;;;;;0.00;0.00;;;27.00;45.00;;;;;;5030630;28;20319;-44
2024/01/12 09:17:26;;;;;;;0.00;0.00;;;27.00;45.10;;;;;;5029907;28;20206;-42
2024/01/12 09:19:57;;;;;;;0.00;0.00;;;27.00;45.10;;;;;;5030441;28;20206;-42
2024/01/12 09:22:27;;;;;;;0.00;0.00;;;27.00;45.10;;;;;;5030723;28;20746;-43
2024/01/12 09:24:58;;;;;;;0.00;0.00;;;27.00;45.10;;;;;;5029693;28;20207;-42
2024/01/12 09:27:31;;;;;;;0.00;0.00;;;27.00;45.10;;;;;;5014637;28;20197;-40
2024/01/12 09:30:01;;;;;;;0.00;0.00;;;27.00;45.10;;;;;;5010908;28;20209;-43
2024/01/12 09:32:32;;;;;;;0.00;0.00;;;26.90;45.00;;;;;;5022582;28;20231;-45
2024/01/12 09:35:03;;;;;;;0.00;0.00;;;27.00;45.10;;;;;;5030225;28;20234;-44
2024/01/12 09:37:33;;;;;;;0.00;0.00;;;26.90;45.00;;;;;;5028139;28;20784;-43
2024/01/12 09:40:04;;;;;;;0.00;0.00;;;26.90;45.00;;;;;;5029680;28;20196;-45
2024/01/12 09:42:37;;;;;;;0.00;0.00;;;26.90;45.00;;;;;;5030123;28;20874;-45
2024/01/12 09:45:09;;;;;;;0.00;0.00;;;26.90;45.00;;;;;;5030296;28;20414;-44
2024/01/12 09:47:40;;;;;;;0.00;0.00;;;26.80;45.00;;;;;;5029736;28;20206;-43
2024/01/12 09:50:12;;;;;;;0.00;0.00;;;26.80;45.00;;;;;;5029835;28;20207;-40
2024/01/12 09:52:43;;;;;;;0.00;0.00;;;26.80;45.00;;;;;;5030582;28;20223;-46
2024/01/12 09:55:14;;;;;;;0.00;0.00;;;26.80;45.10;;;;;;5029337;28;20239;-47
2024/01/12 09:57:46;;;;;;;0.00;0.00;;;26.70;45.00;;;;;;5029480;28;20196;-46
2024/01/12 10:00:19;;;;;;;0.00;0.00;;;26.70;45.00;;;;;;5029459;28;20614;-42
2024/01/12 10:02:49;;;;;;;0.00;0.00;;;26.70;45.00;;;;;;5029856;28;20227;-42
2024/01/12 10:05:20;;;;;;;0.00;0.00;;;26.70;45.00;;;;;;5030071;28;20200;-44
2024/01/12 10:07:51;;;;;;;0.00;0.00;;;26.70;45.00;;;;;;5029519;28;20209;-46
2024/01/12 10:10:21;;;;;;;0.00;0.00;;;26.70;45.10;;;;;;5029094;28;20712;-42
2024/01/12 10:12:54;;;;;;;0.00;0.00;;;26.60;45.00;;;;;;5028756;28;20231;-45
2024/01/12 10:15:26;;;;;;;0.00;0.00;;;26.60;45.00;;;;;;5027675;28;20221;-45
2024/01/12 10:17:57;;;;;;;0.00;0.00;;;26.60;45.00;;;;;;5018212;28;20197;-43
2024/01/12 10:20:27;;;;;;;0.00;0.00;;;26.60;45.00;;;;;;5028198;28;20196;-42
2024/01/12 10:23:01;;;;;;;0.00;0.00;;;26.60;45.00;;;;;;5029109;28;20634;-44
2024/01/12 10:25:32;;;;;;;0.00;0.00;;;26.50;44.90;;;;;;5026911;28;20520;-43
2024/01/12 10:28:04;;;;;;;0.00;0.00;;;26.50;44.90;;;;;;5028696;28;20226;-40
2024/01/12 10:30:35;;;;;;;0.00;0.00;;;26.50;44.90;;;;;;5025122;28;20209;-45
2024/01/12 10:33:06;;;;;;;0.00;0.00;;;26.50;44.90;;;;;;5009537;28;20204;-42
2024/01/12 10:35:37;;;;;;;0.00;0.00;;;26.50;44.90;;;;;;5009361;28;20291;-44
2024/01/12 10:38:08;;;;;;;0.00;0.00;;;26.40;44.90;;;;;;5021297;28;20204;-43
2024/01/12 10:40:39;;;;;;;0.00;0.00;;;26.40;44.90;;;;;;5028950;28;20196;-46
2024/01/12 10:43:14;;;;;;;0.00;0.00;;;26.40;44.90;;;;;;5029870;28;20536;-44
2024/01/12 10:45:51;;;;;;;0.00;0.00;;;26.30;44.90;;;;;;5028992;28;20210;-43
2024/01/12 10:48:26;;;;;;;0.00;0.00;;;26.30;44.90;;;;;;5028207;28;20680;-44
2024/01/12 10:51:02;;;;;;;0.00;0.00;;;26.30;44.90;;;;;;5028107;28;20227;-45
2024/01/12 10:53:43;;;;;;;0.00;0.00;;;26.30;44.90;;;;;;5028786;28;20285;-44
2024/01/12 10:56:13;;;;;;;0.00;0.00;;;26.20;44.80;;;;;;5029326;28;20231;-40
2024/01/12 10:58:48;;;;;;;0.00;0.00;;;26.20;44.80;;;;;;5028947;28;20196;-42
2024/01/12 11:01:20;;;;;;;0.00;0.00;;;26.20;44.90;;;;;;5029616;28;20578;-42
2024/01/12 11:03:51;;;;;;;0.00;0.00;;;26.20;44.90;;;;;;5028565;28;20236;-45
2024/01/12 11:06:23;;;;;;;0.00;0.00;;;26.20;45.00;;;;;;5028859;28;20203;-44
2024/01/12 11:08:54;;;;;;;0.00;0.00;;;26.20;44.90;;;;;;5028271;28;20571;-46
2024/01/12 11:11:29;;;;;;;0.00;0.00;;;26.10;44.80;;;;;;5028838;28;20224;-43
2024/01/12 11:14:02;;;;;;;0.00;0.00;;;26.10;44.80;;;;;;5027764;28;20710;-45
2024/01/12 11:16:32;;;;;;;0.00;0.00;;;26.10;44.80;;;;;;5028784;28;20232;-45
2024/01/12 11:19:03;;;;;;;0.00;0.00;;;26.10;44.80;;;;;;5028859;28;20192;-49
2024/01/12 11:21:38;;;;;;;0.00;0.00;;;26.00;44.80;;;;;;5028403;28;20212;-45
2024/01/12 11:24:09;;;;;;;0.00;0.00;;;26.00;45.40;;;;;;5026932;28;20196;-45
2024/01/12 11:26:41;;;;;;;0.00;0.00;;;26.00;44.80;;;;;;5008847;28;20239;-44
2024/01/12 11:29:19;;;;;;;0.00;0.00;;;26.00;44.80;;;;;;5010717;28;20201;-44
2024/01/12 11:31:54;;;;;;;0.00;0.00;;;25.90;44.80;;;;;;5011720;28;20220;-45
2024/01/12 11:34:24;;;;;;;0.00;0.00;;;25.90;44.80;;;;;;5009089;28;20208;-46
2024/01/12 11:37:00;;;;;;;0.00;0.00;;;25.90;44.80;;;;;;5010409;28;20207;-50
2024/01/12 11:39:36;;;;;;;0.00;0.00;;;25.80;44.80;;;;;;5030954;28;20214;-48
2024/01/12 11:42:08;;;;;;;0.00;0.00;;;25.80;44.80;;;;;;5031640;28;20228;-44
2024/01/12 11:44:40;;;;;;;0.00;0.00;;;25.80;44.80;;;;;;5032243;28;20215;-43
2024/01/12 11:47:13;;;;;;;0.00;0.00;;;25.80;44.80;;;;;;5031863;28;20196;-51
2024/01/12 11:49:44;;;;;;;0.00;0.00;;;25.80;44.80;;;;;;5032217;28;20196;-43
2024/01/12 11:52:15;;;;;;;0.00;0.00;;;25.80;44.80;;;;;;5030821;28;20609;-41
2024/01/12 11:54:45;;;;;;;0.00;0.00;;;25.70;44.80;;;;;;5021944;28;20574;-47
2024/01/12 11:57:20;;;;;;;0.00;0.00;;;25.70;44.80;;;;;;5020288;28;20188;-46
2024/01/12 11:59:52;;;;;;;0.00;0.00;;;25.70;44.80;;;;;;5020169;28;20648;-46
2024/01/12 12:02:23;;;;;;;0.00;0.00;;;25.70;44.80;;;;;;5021226;28;20212;-45
2024/01/12 12:04:54;;;;;;;0.00;0.00;;;25.70;44.80;;;;;;5022444;28;20210;-45
2024/01/12 12:07:28;;;;;;;0.00;0.00;;;25.60;44.70;;;;;;5020805;28;20207;-43
2024/01/12 12:09:59;;;;;;;0.00;0.00;;;25.60;44.70;;;;;;5020551;28;20189;-49
2024/01/12 12:12:30;;;;;;;0.00;0.00;;;25.60;44.70;;;;;;5020025;28;20213;-43
2024/01/12 12:15:06;;;;;;;0.00;0.00;;;25.60;44.70;;;;;;5021445;28;20303;-48
2024/01/12 12:17:38;;;;;;;0.00;0.00;;;25.50;44.70;;;;;;5020261;28;20258;-43
2024/01/12 12:20:10;;;;;;;0.00;0.00;;;25.50;44.80;;;;;;5019744;28;20535;-48
2024/01/12 12:22:41;;;;;;;0.00;0.00;;;25.50;44.80;;;;;;5021105;28;20287;-48
2024/01/12 12:25:13;;;;;;;0.00;0.00;;;25.50;44.80;;;;;;5020254;28;20200;-44
2024/01/12 12:27:44;;;;;;;0.00;0.00;;;25.40;44.80;;;;;;5021159;28;20188;-47
2024/01/12 12:30:17;;;;;;;0.00;0.00;;;25.40;44.80;;;;;;5020155;28;20193;-45
2024/01/12 12:32:49;;;;;;;0.00;0.00;;;25.40;45.20;;;;;;5023029;28;20216;-47
2024/01/12 12:35:22;;;;;;;0.00;0.00;;;25.40;44.80;;;;;;5031594;28;20306;-50
2024/01/12 12:37:53;;;;;;;0.00;0.00;;;25.40;44.80;;;;;;5034490;28;20657;-47
2024/01/12 12:40:24;;;;;;;0.00;0.00;;;25.30;44.70;;;;;;5035057;28;20231;-45
2024/01/12 12:42:55;;;;;;;0.00;0.00;;;25.30;44.70;;;;;;5034671;28;20285;-45
2024/01/12 12:45:28;;;;;;;0.00;0.00;;;25.30;44.80;;;;;;5035654;28;20200;-45
2024/01/12 12:48:00;;;;;;;0.00;0.00;;;25.30;44.80;;;;;;5035265;28;20531;-47
2024/01/12 12:50:31;;;;;;;0.00;0.00;;;25.30;44.80;;;;;;5035195;28;20231;-45
2024/01/12 12:53:02;;;;;;;0.00;0.00;;;25.30;44.80;;;;;;5034666;28;20227;-48
2024/01/12 12:55:32;;;;;;;0.00;0.00;;;25.30;44.80;;;;;;5034223;28;20692;-47
2024/01/12 12:58:03;;;;;;;0.00;0.00;;;25.20;44.80;;;;;;5034521;28;20200;-50
2024/01/12 13:00:36;;;;;;;0.00;0.00;;;25.20;44.80;;;;;;5034477;28;20207;-48
2024/01/12 13:03:06;;;;;;;0.00;0.00;;;25.20;44.80;;;;;;5034163;28;20207;-51
2024/01/12 13:05:38;;;;;;;0.00;0.00;;;25.10;44.80;;;;;;5033935;28;20196;-47
2024/01/12 13:08:09;;;;;;;0.00;0.00;;;25.10;44.80;;;;;;5034271;28;20235;-44
2024/01/12 13:10:40;;;;;;;0.00;0.00;;;25.10;44.80;;;;;;5034633;28;20614;-42
2024/01/12 13:13:10;;;;;;;0.00;0.00;;;25.10;44.80;;;;;;5034544;28;20275;-45
2024/01/12 13:15:43;;;;;;;0.00;0.00;;;25.10;44.90;;;;;;5034688;28;20224;-44
2024/01/12 13:18:13;;;;;;;0.00;0.00;;;25.10;44.90;;;;;;5034831;28;20200;-50